Time;durP1;ratioP1;P1;durP2;ratioP2;P2;SDS_P1;SDS_P2;PMS_P1;PMS_P2;Temp;Humidity;BMP_temperature;BMP_pressure;BME280_temperature;BME280_humidity;BME280_pressure;Samples;Min_cycle;Max_cycle;Signal;HPM_P1;HPM_P2
2023/09/30 00:01:58;;;;;;;19.05;13.88;;;;;;;;;;6269166;28;20045;-78
2023/09/30 00:05:00;;;;;;;20.60;14.55;;;;;;;;;;6268976;28;20044;-77
2023/09/30 00:08:03;;;;;;;18.48;14.20;;;;;;;;;;6272241;28;20060;-76
2023/09/30 00:11:06;;;;;;;19.50;14.63;;;;;;;;;;6268573;28;20060;-76
2023/09/30 00:14:11;;;;;;;18.00;14.67;;;;;;;;;;6268990;28;20053;-75
2023/09/30 00:17:12;;;;;;;21.55;15.27;;;;;;;;;;6271371;28;20248;-76
2023/09/30 00:20:15;;;;;;;18.30;14.50;;;;;;;;;;6269092;28;20052;-75
2023/09/30 00:23:20;;;;;;;19.58;14.73;;;;;;;;;;6269128;28;20348;-77
2023/09/30 00:26:22;;;;;;;19.73;14.38;;;;;;;;;;6269948;28;20345;-76
2023/09/30 00:29:24;;;;;;;20.05;14.70;;;;;;;;;;6271214;28;20280;-75
2023/09/30 00:32:26;;;;;;;24.15;16.17;;;;;;;;;;6270856;28;20046;-78
2023/09/30 00:35:28;;;;;;;20.15;14.82;;;;;;;;;;6271483;28;20510;-76
2023/09/30 00:38:31;;;;;;;20.52;14.90;;;;;;;;;;6271688;28;20048;-76
2023/09/30 00:41:33;;;;;;;18.20;14.00;;;;;;;;;;6272195;28;20057;-76
2023/09/30 00:44:35;;;;;;;24.15;15.02;;;;;;;;;;6254207;28;20108;-76
2023/09/30 00:47:37;;;;;;;19.40;13.65;;;;;;;;;;6244991;28;20241;-76
2023/09/30 00:50:40;;;;;;;20.23;13.15;;;;;;;;;;6245802;28;20265;-75
2023/09/30 00:53:46;;;;;;;19.83;14.27;;;;;;;;;;6247749;28;20054;-76
2023/09/30 00:56:51;;;;;;;19.23;13.48;;;;;;;;;;6258944;28;20053;-75
2023/09/30 00:59:53;;;;;;;18.45;13.85;;;;;;;;;;6269018;28;20060;-76
2023/09/30 01:02:54;;;;;;;17.52;12.77;;;;;;;;;;6269602;28;20278;-76
2023/09/30 01:05:57;;;;;;;16.35;12.63;;;;;;;;;;6269017;28;20053;-75
2023/09/30 01:09:01;;;;;;;17.70;13.65;;;;;;;;;;6271526;28;20328;-75
2023/09/30 01:12:03;;;;;;;16.20;13.15;;;;;;;;;;6273816;28;20338;-77
2023/09/30 01:15:06;;;;;;;20.02;13.88;;;;;;;;;;6274980;28;20048;-78
2023/09/30 01:18:07;;;;;;;20.02;12.80;;;;;;;;;;6269948;28;20049;-76
2023/09/30 01:21:10;;;;;;;18.45;13.82;;;;;;;;;;6268255;28;20072;-76
2023/09/30 01:24:14;;;;;;;19.40;14.20;;;;;;;;;;6270939;28;20120;-75
2023/09/30 01:27:18;;;;;;;20.10;13.68;;;;;;;;;;6272388;28;20222;-75
2023/09/30 01:30:22;;;;;;;17.08;13.80;;;;;;;;;;6270491;28;20083;-76
2023/09/30 01:33:23;;;;;;;16.55;12.57;;;;;;;;;;6268581;28;20052;-76
2023/09/30 01:36:25;;;;;;;16.55;12.80;;;;;;;;;;6269087;28;20106;-76
2023/09/30 01:39:29;;;;;;;19.75;13.65;;;;;;;;;;6273190;28;20061;-76
2023/09/30 01:42:31;;;;;;;16.58;13.52;;;;;;;;;;6270141;28;20111;-76
2023/09/30 01:45:33;;;;;;;16.95;13.25;;;;;;;;;;6267777;28;20075;-76
2023/09/30 01:48:35;;;;;;;19.65;13.63;;;;;;;;;;6272733;28;20061;-76
2023/09/30 01:51:37;;;;;;;18.35;13.38;;;;;;;;;;6270898;28;20068;-77
2023/09/30 01:54:40;;;;;;;20.70;13.57;;;;;;;;;;6271013;28;20053;-76
2023/09/30 01:57:42;;;;;;;16.80;13.60;;;;;;;;;;6269420;28;20056;-76
2023/09/30 02:00:44;;;;;;;19.02;13.05;;;;;;;;;;6269357;28;20053;-76
2023/09/30 02:03:46;;;;;;;19.17;13.25;;;;;;;;;;6269330;28;20044;-76
2023/09/30 02:06:47;;;;;;;17.75;13.18;;;;;;;;;;6270906;28;20057;-76
2023/09/30 02:09:51;;;;;;;20.33;13.15;;;;;;;;;;6271472;28;20079;-75
2023/09/30 02:12:52;;;;;;;18.00;13.45;;;;;;;;;;6258557;28;20041;-77
2023/09/30 02:15:55;;;;;;;16.85;13.23;;;;;;;;;;6274123;28;20333;-76
2023/09/30 02:18:57;;;;;;;19.00;13.57;;;;;;;;;;6268322;28;20407;-76
2023/09/30 02:21:59;;;;;;;17.15;13.38;;;;;;;;;;6260370;28;20108;-73
2023/09/30 02:25:03;;;;;;;20.65;14.88;;;;;;;;;;6241659;28;20104;-76
2023/09/30 02:28:06;;;;;;;18.60;12.90;;;;;;;;;;6244109;28;20080;-76
2023/09/30 02:31:08;;;;;;;17.08;13.40;;;;;;;;;;6245573;28;20060;-75
2023/09/30 02:34:10;;;;;;;16.77;12.90;;;;;;;;;;6251650;28;20258;-76
2023/09/30 02:37:12;;;;;;;17.05;13.15;;;;;;;;;;6244495;28;20049;-76
2023/09/30 02:40:17;;;;;;;16.77;12.88;;;;;;;;;;6254238;28;20048;-75
2023/09/30 02:43:19;;;;;;;18.65;13.32;;;;;;;;;;6270114;28;20078;-76
2023/09/30 02:46:21;;;;;;;15.85;13.07;;;;;;;;;;6271565;28;20088;-76
2023/09/30 02:49:23;;;;;;;18.35;14.63;;;;;;;;;;6268434;28;20336;-77
2023/09/30 02:52:25;;;;;;;18.25;14.50;;;;;;;;;;6269526;28;20061;-77
2023/09/30 02:55:28;;;;;;;18.05;14.10;;;;;;;;;;6268903;28;20060;-77
2023/09/30 02:58:29;;;;;;;18.15;14.90;;;;;;;;;;6270338;28;20059;-77
2023/09/30 03:01:31;;;;;;;20.73;15.55;;;;;;;;;;6268155;28;20060;-76
2023/09/30 03:04:33;;;;;;;21.42;15.30;;;;;;;;;;6266489;28;20057;-76
2023/09/30 03:07:35;;;;;;;22.95;15.43;;;;;;;;;;6268273;28;20065;-76
2023/09/30 03:10:40;;;;;;;22.08;15.07;;;;;;;;;;6271383;28;20059;-75
2023/09/30 03:13:42;;;;;;;20.52;15.82;;;;;;;;;;6262117;28;20060;-77
2023/09/30 03:16:44;;;;;;;20.55;14.63;;;;;;;;;;6266285;28;20232;-74
2023/09/30 03:19:46;;;;;;;17.85;14.55;;;;;;;;;;6267243;28;20087;-76
2023/09/30 03:22:48;;;;;;;22.92;15.57;;;;;;;;;;6261883;28;20061;-76
2023/09/30 03:25:51;;;;;;;24.08;16.80;;;;;;;;;;6243532;28;20064;-76
2023/09/30 03:28:53;;;;;;;21.40;15.75;;;;;;;;;;6241416;28;20128;-77
2023/09/30 03:31:56;;;;;;;20.98;16.10;;;;;;;;;;6267103;28;20052;-76
2023/09/30 03:35:00;;;;;;;19.88;16.55;;;;;;;;;;6268678;28;20238;-76
2023/09/30 03:38:02;;;;;;;25.15;15.52;;;;;;;;;;6268247;28;20048;-75
2023/09/30 03:41:08;;;;;;;22.52;15.45;;;;;;;;;;6269690;28;20065;-75
2023/09/30 03:44:10;;;;;;;19.35;15.13;;;;;;;;;;6269499;28;20053;-75
2023/09/30 03:47:12;;;;;;;22.67;15.85;;;;;;;;;;6267526;28;20061;-75
2023/09/30 03:50:14;;;;;;;20.58;16.00;;;;;;;;;;6254791;28;20077;-75
2023/09/30 03:53:16;;;;;;;20.08;15.60;;;;;;;;;;6242645;28;20062;-76
2023/09/30 03:56:19;;;;;;;24.35;15.73;;;;;;;;;;6255787;28;20049;-74
2023/09/30 03:59:21;;;;;;;22.45;16.00;;;;;;;;;;6268866;28;20053;-77
2023/09/30 04:02:22;;;;;;;22.17;15.40;;;;;;;;;;6267381;28;20060;-77
2023/09/30 04:05:28;;;;;;;23.58;17.45;;;;;;;;;;6267004;28;20057;-74
2023/09/30 04:08:33;;;;;;;24.70;16.90;;;;;;;;;;6268237;28;20385;-75
2023/09/30 04:11:36;;;;;;;23.85;17.00;;;;;;;;;;6265710;28;20362;-77
2023/09/30 04:14:39;;;;;;;26.77;16.88;;;;;;;;;;6267001;28;20364;-75
2023/09/30 04:17:40;;;;;;;25.50;15.97;;;;;;;;;;6264544;28;20237;-75
2023/09/30 04:20:42;;;;;;;23.70;17.15;;;;;;;;;;6267533;28;20429;-76
2023/09/30 04:23:44;;;;;;;23.95;16.90;;;;;;;;;;6266749;28;20057;-75
2023/09/30 04:26:50;;;;;;;21.35;16.05;;;;;;;;;;6267210;28;20057;-75
2023/09/30 04:29:51;;;;;;;22.23;16.20;;;;;;;;;;6265464;28;20364;-76
2023/09/30 04:32:54;;;;;;;24.33;16.58;;;;;;;;;;6265136;28;20128;-75
2023/09/30 04:35:56;;;;;;;22.98;16.05;;;;;;;;;;6266742;28;20048;-75
2023/09/30 04:39:00;;;;;;;23.75;16.10;;;;;;;;;;6265571;28;20380;-75
2023/09/30 04:42:04;;;;;;;22.65;16.02;;;;;;;;;;6268207;28;20053;-76
2023/09/30 04:45:07;;;;;;;;;;;;;;;;;;6264705;28;20120;-75
2023/09/30 04:48:09;;;;;;;28.08;17.25;;;;;;;;;;6267061;28;19925;-74
2023/09/30 04:51:13;;;;;;;24.67;17.33;;;;;;;;;;6269924;28;20079;-76
2023/09/30 04:54:14;;;;;;;23.45;16.63;;;;;;;;;;6271975;28;20051;-75
2023/09/30 04:57:19;;;;;;;26.13;17.83;;;;;;;;;;6272077;28;20095;-75
2023/09/30 05:00:24;;;;;;;23.55;16.90;;;;;;;;;;6269134;28;20053;-76
2023/09/30 05:03:26;;;;;;;28.33;17.45;;;;;;;;;;6270971;28;20123;-76
2023/09/30 05:06:28;;;;;;;22.15;16.40;;;;;;;;;;6269956;28;20053;-77
2023/09/30 05:09:31;;;;;;;22.65;15.73;;;;;;;;;;6268220;28;20317;-75
2023/09/30 05:12:34;;;;;;;22.23;16.67;;;;;;;;;;6270649;28;20054;-76
2023/09/30 05:15:35;;;;;;;23.75;16.48;;;;;;;;;;6270696;28;20045;-76
2023/09/30 05:18:38;;;;;;;23.85;17.45;;;;;;;;;;6270749;28;20060;-76
2023/09/30 05:21:40;;;;;;;22.13;15.73;;;;;;;;;;6271743;28;20148;-74
2023/09/30 05:24:41;;;;;;;22.90;16.88;;;;;;;;;;6269731;28;20057;-76
2023/09/30 05:27:45;;;;;;;21.95;15.48;;;;;;;;;;6269569;28;20053;-76
2023/09/30 05:30:46;;;;;;;20.95;15.55;;;;;;;;;;6268228;28;20052;-76
2023/09/30 05:33:48;;;;;;;22.92;16.80;;;;;;;;;;6271810;28;20195;-76
2023/09/30 05:36:51;;;;;;;24.17;16.15;;;;;;;;;;6269484;28;20061;-76
2023/09/30 05:39:53;;;;;;;24.45;17.08;;;;;;;;;;6268496;28;20295;-75
2023/09/30 05:42:57;;;;;;;22.60;16.42;;;;;;;;;;6268913;28;20056;-76
2023/09/30 05:45:59;;;;;;;22.52;15.77;;;;;;;;;;6269475;28;20229;-77
2023/09/30 05:49:01;;;;;;;25.38;15.02;;;;;;;;;;6267949;28;20057;-76
2023/09/30 05:52:03;;;;;;;24.27;15.75;;;;;;;;;;6271297;28;20049;-76
2023/09/30 05:55:06;;;;;;;21.35;15.57;;;;;;;;;;6268950;28;20116;-76
2023/09/30 05:58:10;;;;;;;20.15;16.30;;;;;;;;;;6270349;28;20170;-76
2023/09/30 06:01:12;;;;;;;23.23;17.02;;;;;;;;;;6267118;28;20064;-76
2023/09/30 06:04:14;;;;;;;20.27;16.50;;;;;;;;;;6267031;28;20093;-76
2023/09/30 06:07:18;;;;;;;24.42;16.77;;;;;;;;;;6266496;28;20103;-76
2023/09/30 06:10:19;;;;;;;20.70;17.30;;;;;;;;;;6269783;28;20102;-74
2023/09/30 06:13:22;;;;;;;24.67;17.33;;;;;;;;;;6246207;28;20049;-75
2023/09/30 06:16:26;;;;;;;28.55;19.13;;;;;;;;;;6243234;28;20547;-76
2023/09/30 06:19:27;;;;;;;24.65;17.77;;;;;;;;;;6248830;28;20330;-76
2023/09/30 06:22:29;;;;;;;27.23;19.85;;;;;;;;;;6267929;28;20060;-77
2023/09/30 06:25:32;;;;;;;26.58;18.95;;;;;;;;;;6269490;28;20037;-76
2023/09/30 06:28:40;;;;;;;26.58;19.75;;;;;;;;;;6269339;28;20056;-77
2023/09/30 06:31:43;;;;;;;25.25;19.45;;;;;;;;;;6268655;28;20195;-77
2023/09/30 06:34:44;;;;;;;27.35;19.73;;;;;;;;;;6269238;28;20086;-75
2023/09/30 06:37:46;;;;;;;33.67;20.83;;;;;;;;;;6270711;28;20063;-76
2023/09/30 06:40:49;;;;;;;27.25;19.48;;;;;;;;;;6266841;28;20044;-76
2023/09/30 06:43:52;;;;;;;27.27;19.65;;;;;;;;;;6266234;28;20045;-75
2023/09/30 06:46:54;;;;;;;26.63;20.08;;;;;;;;;;6269378;28;20056;-76
2023/09/30 06:49:56;;;;;;;29.20;21.80;;;;;;;;;;6266215;28;20064;-76
2023/09/30 06:52:59;;;;;;;27.98;20.98;;;;;;;;;;6266347;28;20260;-75
2023/09/30 06:56:01;;;;;;;31.70;22.63;;;;;;;;;;6268236;28;20080;-75
2023/09/30 06:59:06;;;;;;;31.83;23.75;;;;;;;;;;6270219;28;20063;-74
2023/09/30 07:02:08;;;;;;;31.08;22.48;;;;;;;;;;6267178;28;20057;-76
2023/09/30 07:05:10;;;;;;;29.63;21.02;;;;;;;;;;6265260;28;20083;-76
2023/09/30 07:08:12;;;;;;;28.13;21.45;;;;;;;;;;6243712;28;20133;-76
2023/09/30 07:11:14;;;;;;;31.65;21.33;;;;;;;;;;6245982;28;20267;-76
2023/09/30 07:14:17;;;;;;;32.72;21.60;;;;;;;;;;6270243;28;20052;-76
2023/09/30 07:17:18;;;;;;;29.42;22.30;;;;;;;;;;6270805;28;20061;-73
2023/09/30 07:20:22;;;;;;;29.90;22.02;;;;;;;;;;6268463;28;20057;-76
2023/09/30 07:23:24;;;;;;;29.75;21.23;;;;;;;;;;6270206;28;20084;-75
2023/09/30 07:26:25;;;;;;;33.47;23.42;;;;;;;;;;6265952;28;20053;-75
2023/09/30 07:29:28;;;;;;;27.85;21.83;;;;;;;;;;6269492;28;20367;-76
2023/09/30 07:32:31;;;;;;;36.20;23.67;;;;;;;;;;6266641;28;20059;-75
2023/09/30 07:35:34;;;;;;;33.42;23.80;;;;;;;;;;6267524;28;20061;-77
2023/09/30 07:38:36;;;;;;;29.33;20.73;;;;;;;;;;6266471;28;20350;-76
2023/09/30 07:41:38;;;;;;;30.77;20.60;;;;;;;;;;6263856;28;20663;-75
2023/09/30 07:44:41;;;;;;;29.42;23.58;;;;;;;;;;6268318;28;20061;-75
2023/09/30 07:47:42;;;;;;;;;;;;;;;;;;6267132;28;20076;-76
2023/09/30 07:50:44;;;;;;;33.47;24.42;;;;;;;;;;6267535;28;19916;-77
2023/09/30 07:53:46;;;;;;;29.67;22.38;;;;;;;;;;6270201;28;20049;-76
2023/09/30 07:56:48;;;;;;;31.52;24.10;;;;;;;;;;6264586;28;20255;-70
2023/09/30 07:59:52;;;;;;;33.17;22.70;;;;;;;;;;6269030;28;20074;-73
2023/09/30 08:02:53;;;;;;;32.40;24.27;;;;;;;;;;6267648;28;20057;-75
2023/09/30 08:05:55;;;;;;;31.10;23.55;;;;;;;;;;6266998;28;20056;-76
2023/09/30 08:08:57;;;;;;;45.35;26.42;;;;;;;;;;6267651;28;20044;-76
2023/09/30 08:11:58;;;;;;;30.50;23.98;;;;;;;;;;6269460;28;20053;-74
2023/09/30 08:15:03;;;;;;;31.85;21.95;;;;;;;;;;6266394;28;20048;-77
2023/09/30 08:18:05;;;;;;;28.92;20.38;;;;;;;;;;6267493;28;20064;-75
2023/09/30 08:21:10;;;;;;;28.92;20.80;;;;;;;;;;6268752;28;20052;-76
2023/09/30 08:24:11;;;;;;;31.15;22.38;;;;;;;;;;6270795;28;20115;-75
2023/09/30 08:27:13;;;;;;;37.65;22.25;;;;;;;;;;6273165;28;20056;-75
2023/09/30 08:30:17;;;;;;;23.95;18.92;;;;;;;;;;6273085;28;20051;-75
2023/09/30 08:33:18;;;;;;;30.60;22.45;;;;;;;;;;6271602;28;20052;-75
2023/09/30 08:36:20;;;;;;;30.55;20.90;;;;;;;;;;6270195;28;20053;-76
2023/09/30 08:39:23;;;;;;;29.15;19.10;;;;;;;;;;6274926;28;20258;-76
2023/09/30 08:42:25;;;;;;;29.20;20.87;;;;;;;;;;6272051;28;20057;-76
2023/09/30 08:45:29;;;;;;;25.48;19.42;;;;;;;;;;6274248;28;20418;-76
2023/09/30 08:48:33;;;;;;;23.75;19.95;;;;;;;;;;6271560;28;20086;-76
2023/09/30 08:51:36;;;;;;;26.13;20.15;;;;;;;;;;6269991;28;20053;-76
2023/09/30 08:54:38;;;;;;;;;;;;;;;;;;6270842;28;20072;-76
2023/09/30 08:57:42;;;;;;;26.33;20.70;;;;;;;;;;6271428;28;20225;-78
2023/09/30 09:00:45;;;;;;;28.92;21.23;;;;;;;;;;6271023;28;20061;-78
2023/09/30 09:03:52;;;;;;;25.42;20.73;;;;;;;;;;6272095;28;20049;-77
2023/09/30 09:06:55;;;;;;;26.17;19.20;;;;;;;;;;6251649;28;20045;-76
2023/09/30 09:10:13;;;;;;;21.73;18.35;;;;;;;;;;6246546;28;20045;-77
2023/09/30 09:13:15;;;;;;;28.08;20.25;;;;;;;;;;6265272;28;20237;-75
2023/09/30 09:16:19;;;;;;;24.15;18.60;;;;;;;;;;6268364;28;20353;-75
2023/09/30 09:19:22;;;;;;;23.38;18.38;;;;;;;;;;6270384;28;20055;-76
2023/09/30 09:22:23;;;;;;;25.80;19.50;;;;;;;;;;6268634;28;20068;-76
2023/09/30 09:25:26;;;;;;;25.17;19.38;;;;;;;;;;6270468;28;20046;-75
2023/09/30 09:28:35;;;;;;;28.65;20.38;;;;;;;;;;6271582;28;20052;-76
2023/09/30 09:31:38;;;;;;;25.05;19.33;;;;;;;;;;6267577;28;20179;-76
2023/09/30 09:34:40;;;;;;;28.10;19.98;;;;;;;;;;6271226;28;20053;-77
2023/09/30 09:37:42;;;;;;;24.88;18.70;;;;;;;;;;6269510;28;20056;-76
2023/09/30 09:40:44;;;;;;;23.85;19.23;;;;;;;;;;6268809;28;20056;-76
2023/09/30 09:43:46;;;;;;;28.92;18.88;;;;;;;;;;6270282;28;20337;-74
2023/09/30 09:46:50;;;;;;;17.35;15.50;;;;;;;;;;6271018;28;20088;-74
2023/09/30 09:49:52;;;;;;;17.60;14.63;;;;;;;;;;6270759;28;20079;-75
2023/09/30 09:52:58;;;;;;;24.48;15.10;;;;;;;;;;6271712;28;20231;-73
2023/09/30 09:56:01;;;;;;;21.30;16.25;;;;;;;;;;6268102;28;20053;-76
2023/09/30 09:59:04;;;;;;;21.88;16.30;;;;;;;;;;6268915;28;20064;-76
2023/09/30 10:02:11;;;;;;;21.00;14.98;;;;;;;;;;6266910;28;20283;-75
2023/09/30 10:05:13;;;;;;;23.10;15.45;;;;;;;;;;6269066;28;20057;-76
2023/09/30 10:08:17;;;;;;;17.95;16.05;;;;;;;;;;6268735;28;20069;-76
2023/09/30 10:11:20;;;;;;;18.40;14.35;;;;;;;;;;6268953;28;20084;-76
2023/09/30 10:14:32;;;;;;;;;;;;;;;;;;6271322;28;20330;-76
2023/09/30 10:17:59;;;;;;;17.15;13.02;;;;;;;;;;6270014;28;19916;-76
2023/09/30 10:21:09;;;;;;;19.48;14.93;;;;;;;;;;6260902;28;20057;-75
2023/09/30 10:24:30;;;;;;;19.58;16.73;;;;;;;;;;6267967;28;20052;-75
2023/09/30 10:27:37;;;;;;;17.38;14.73;;;;;;;;;;6266986;28;20253;-75
2023/09/30 10:30:39;;;;;;;19.23;15.50;;;;;;;;;;6253602;28;20051;-76
2023/09/30 10:34:17;;;;;;;17.08;14.73;;;;;;;;;;6245095;28;20057;-75
2023/09/30 10:37:24;;;;;;;23.65;16.75;;;;;;;;;;6246329;28;20061;-76
2023/09/30 10:40:27;;;;;;;21.85;17.13;;;;;;;;;;6245336;28;20065;-77
2023/09/30 10:43:33;;;;;;;22.60;15.68;;;;;;;;;;6244084;28;20257;-77
2023/09/30 10:46:35;;;;;;;23.85;15.23;;;;;;;;;;6243899;28;20072;-76
2023/09/30 10:49:38;;;;;;;19.02;14.70;;;;;;;;;;6244091;28;20054;-73
2023/09/30 10:52:42;;;;;;;19.73;15.50;;;;;;;;;;6252898;28;20053;-74
2023/09/30 10:55:44;;;;;;;18.45;15.45;;;;;;;;;;6268297;28;20057;-76
2023/09/30 10:58:47;;;;;;;14.73;12.98;;;;;;;;;;6267349;28;20075;-74
2023/09/30 11:01:50;;;;;;;19.63;15.25;;;;;;;;;;6270143;28;20037;-78
2023/09/30 11:04:51;;;;;;;18.83;13.93;;;;;;;;;;6267777;28;20509;-78
2023/09/30 11:07:58;;;;;;;16.60;13.27;;;;;;;;;;6267099;28;20115;-79
2023/09/30 11:11:02;;;;;;;14.85;13.20;;;;;;;;;;6267999;28;20333;-80
2023/09/30 11:14:05;;;;;;;21.77;16.85;;;;;;;;;;6266605;28;20349;-78
2023/09/30 11:17:07;;;;;;;19.00;14.80;;;;;;;;;;6268036;28;20072;-79
2023/09/30 11:20:10;;;;;;;15.73;12.93;;;;;;;;;;6263565;28;20053;-78
2023/09/30 11:23:14;;;;;;;;;;;;;;;;;;6266671;28;20072;-77
2023/09/30 11:26:16;;;;;;;16.00;14.02;;;;;;;;;;6267351;28;19931;-78
2023/09/30 11:29:18;;;;;;;18.88;14.23;;;;;;;;;;6266183;28;20338;-77
2023/09/30 11:32:26;;;;;;;14.43;10.88;;;;;;;;;;6265262;28;20060;-79
2023/09/30 11:35:28;;;;;;;16.02;12.45;;;;;;;;;;6266700;28;20057;-80
2023/09/30 11:38:31;;;;;;;23.13;16.48;;;;;;;;;;6268477;28;20257;-79
2023/09/30 11:41:34;;;;;;;21.33;15.63;;;;;;;;;;6264425;28;20075;-78
2023/09/30 11:44:46;;;;;;;12.77;10.27;;;;;;;;;;6270843;28;20049;-78
2023/09/30 11:47:48;;;;;;;17.77;13.20;;;;;;;;;;6264726;28;20326;-74
2023/09/30 11:50:52;;;;;;;17.00;14.90;;;;;;;;;;6269676;28;20096;-77
2023/09/30 11:53:57;;;;;;;16.33;12.45;;;;;;;;;;6266425;28;20053;-76
2023/09/30 11:57:00;;;;;;;11.35;9.32;;;;;;;;;;6268285;28;20056;-74
2023/09/30 12:00:02;;;;;;;16.23;11.80;;;;;;;;;;6276866;28;20053;-75
2023/09/30 12:03:04;;;;;;;11.73;9.85;;;;;;;;;;6276626;28;20249;-74
2023/09/30 12:06:06;;;;;;;11.88;9.52;;;;;;;;;;6272646;28;20349;-74
2023/09/30 12:09:13;;;;;;;20.48;15.85;;;;;;;;;;6273671;28;20056;-74
2023/09/30 12:12:15;;;;;;;20.17;14.13;;;;;;;;;;6274065;28;20321;-74
2023/09/30 12:15:19;;;;;;;14.88;10.90;;;;;;;;;;6273414;28;20116;-74
2023/09/30 12:18:23;;;;;;;17.55;14.95;;;;;;;;;;6272992;28;20064;-74
2023/09/30 12:21:25;;;;;;;17.02;11.80;;;;;;;;;;6270071;28;20095;-74
2023/09/30 12:24:28;;;;;;;15.70;10.52;;;;;;;;;;6275170;28;20099;-74
2023/09/30 12:27:29;;;;;;;19.02;13.85;;;;;;;;;;6271761;28;20289;-74
2023/09/30 12:30:35;;;;;;;12.43;10.27;;;;;;;;;;6270402;28;20041;-74
2023/09/30 12:33:37;;;;;;;14.50;11.13;;;;;;;;;;6270616;28;20053;-74
2023/09/30 12:36:39;;;;;;;23.33;15.18;;;;;;;;;;6273341;28;20059;-73
2023/09/30 12:39:44;;;;;;;15.70;13.25;;;;;;;;;;6273995;28;20049;-75
2023/09/30 12:42:47;;;;;;;17.83;15.40;;;;;;;;;;6272740;28;20445;-74
2023/09/30 12:45:49;;;;;;;12.35;11.05;;;;;;;;;;6271249;28;20053;-74
2023/09/30 12:48:51;;;;;;;14.65;11.43;;;;;;;;;;6269932;28;20053;-74
2023/09/30 12:51:52;;;;;;;;;;;;;;;;;;6272453;28;20104;-74
2023/09/30 12:54:56;;;;;;;16.87;12.37;;;;;;;;;;6267663;28;19924;-75
2023/09/30 12:57:59;;;;;;;16.77;11.82;;;;;;;;;;6272186;28;20120;-75
2023/09/30 13:01:02;;;;;;;15.57;11.73;;;;;;;;;;6275096;28;20353;-75
2023/09/30 13:04:07;;;;;;;12.25;10.20;;;;;;;;;;6274054;28;20125;-75
2023/09/30 13:07:10;;;;;;;14.23;11.63;;;;;;;;;;6265601;28;20084;-75
2023/09/30 13:47:28;;;;;;;15.93;11.30;;;;;;;;;;6246930;27;1991514;-75
2023/09/30 13:50:30;;;;;;;16.05;10.75;;;;;;;;;;6290094;28;20051;-75
2023/09/30 13:53:32;;;;;;;13.63;12.13;;;;;;;;;;6287415;28;20131;-75
2023/09/30 13:56:35;;;;;;;;;;;;;;;;;;6274893;28;20053;-75
2023/09/30 13:59:37;;;;;;;17.75;11.77;;;;;;;;;;6277417;28;19932;-75
2023/09/30 14:02:40;;;;;;;;;;;;;;;;;;6288570;28;20079;-75
2023/09/30 14:08:58;;;;;;;18.20;10.35;;;;;;;;;;6283181;28;20053;-78
2023/09/30 14:12:00;;;;;;;17.90;10.10;;;;;;;;;;6287696;28;20378;-74
2023/09/30 14:15:05;;;;;;;12.55;10.48;;;;;;;;;;6284470;28;20088;-76
2023/09/30 14:18:08;;;;;;;11.20;8.95;;;;;;;;;;6285942;28;20364;-75
2023/09/30 14:21:10;;;;;;;11.75;10.25;;;;;;;;;;6280415;28;20131;-74
2023/09/30 14:24:12;;;;;;;14.32;10.18;;;;;;;;;;6290243;28;20073;-74
2023/09/30 14:27:15;;;;;;;13.35;9.50;;;;;;;;;;6287561;28;20072;-74
2023/09/30 14:30:19;;;;;;;11.95;8.70;;;;;;;;;;6284409;28;20057;-75
2023/09/30 14:33:23;;;;;;;10.52;8.68;;;;;;;;;;6283296;28;20100;-75
2023/09/30 14:36:25;;;;;;;11.60;9.15;;;;;;;;;;6285356;28;20102;-75
2023/09/30 14:39:27;;;;;;;12.43;10.75;;;;;;;;;;6286082;28;20044;-75
2023/09/30 14:42:30;;;;;;;11.25;8.27;;;;;;;;;;6271041;28;20041;-75
2023/09/30 14:45:32;;;;;;;;;;;;;;;;;;6281574;28;20056;-75
2023/09/30 14:48:36;;;;;;;12.07;8.90;;;;;;;;;;6286246;28;19962;-75
2023/09/30 14:51:38;;;;;;;12.00;8.93;;;;;;;;;;6288438;28;20271;-75
2023/09/30 14:54:40;;;;;;;10.00;7.85;;;;;;;;;;6284845;28;20052;-75
2023/09/30 14:57:42;;;;;;;13.82;8.07;;;;;;;;;;6272776;28;20059;-75
2023/09/30 15:00:44;;;;;;;12.15;7.78;;;;;;;;;;6269726;28;20393;-75
2023/09/30 15:03:48;;;;;;;;;;;;;;;;;;6268744;28;20083;-75
2023/09/30 15:06:50;;;;;;;11.52;7.88;;;;;;;;;;6276277;28;20082;-75
2023/09/30 15:09:54;;;;;;;;;;;;;;;;;;6269294;28;20399;-75
2023/09/30 15:12:57;;;;;;;14.82;10.52;;;;;;;;;;6269666;28;19916;-75
2023/09/30 15:15:59;;;;;;;9.93;7.50;;;;;;;;;;6272113;28;20045;-75
2023/09/30 15:19:02;;;;;;;;;;;;;;;;;;6271004;28;20045;-75
2023/09/30 15:22:04;;;;;;;8.18;7.20;;;;;;;;;;6265790;28;19932;-75
2023/09/30 15:25:06;;;;;;;;;;;;;;;;;;6268713;28;20058;-75
2023/09/30 15:28:08;;;;;;;12.60;7.90;;;;;;;;;;6269897;28;19925;-75
2023/09/30 15:31:10;;;;;;;11.02;7.70;;;;;;;;;;6268675;28;20496;-76
2023/09/30 15:34:13;;;;;;;;;;;;;;;;;;6272718;28;20076;-76
2023/09/30 15:37:15;;;;;;;10.80;7.80;;;;;;;;;;6265529;28;19924;-76
2023/09/30 15:40:17;;;;;;;9.63;7.95;;;;;;;;;;6269237;28;20223;-76
2023/09/30 15:43:19;;;;;;;12.48;8.30;;;;;;;;;;6268981;28;20060;-76
2023/09/30 15:46:21;;;;;;;11.98;8.25;;;;;;;;;;6266867;28;20053;-76
2023/09/30 15:49:24;;;;;;;11.48;8.48;;;;;;;;;;6267611;28;20049;-76
2023/09/30 15:52:26;;;;;;;8.93;7.90;;;;;;;;;;6268931;28;20044;-75
2023/09/30 15:55:31;;;;;;;10.18;8.57;;;;;;;;;;6264845;28;20069;-75
2023/09/30 15:58:48;;;;;;;13.63;7.90;;;;;;;;;;6265806;28;20045;-75
2023/09/30 16:01:56;;;;;;;12.70;7.80;;;;;;;;;;6267113;28;20047;-75
2023/09/30 16:04:59;;;;;;;12.55;7.70;;;;;;;;;;6268797;28;20095;-75
2023/09/30 16:08:01;;;;;;;8.35;7.22;;;;;;;;;;6270872;28;20048;-75
2023/09/30 16:11:03;;;;;;;12.18;8.85;;;;;;;;;;6263791;28;20417;-76
2023/09/30 16:14:05;;;;;;;12.17;8.87;;;;;;;;;;6266446;28;20056;-78
2023/09/30 16:17:08;;;;;;;12.32;8.20;;;;;;;;;;6265046;28;20465;-76
2023/09/30 16:20:12;;;;;;;10.27;9.23;;;;;;;;;;6269521;28;20226;-79
2023/09/30 16:23:14;;;;;;;14.73;8.15;;;;;;;;;;6265559;28;20104;-76
2023/09/30 16:26:16;;;;;;;9.05;7.88;;;;;;;;;;6267975;28;20284;-79
2023/09/30 16:29:21;;;;;;;9.05;7.93;;;;;;;;;;6265732;28;20059;-78
2023/09/30 16:32:23;;;;;;;12.10;8.02;;;;;;;;;;6268739;28;20069;-79
2023/09/30 16:35:39;;;;;;;10.80;8.55;;;;;;;;;;6264212;28;20123;-79
2023/09/30 16:38:40;;;;;;;12.32;8.82;;;;;;;;;;6269106;28;20053;-78
2023/09/30 16:41:42;;;;;;;13.83;9.33;;;;;;;;;;6266624;28;20045;-78
2023/09/30 16:44:44;;;;;;;13.80;10.23;;;;;;;;;;6267291;28;20814;-78
2023/09/30 16:47:46;;;;;;;13.90;8.23;;;;;;;;;;6267884;28;20388;-78
2023/09/30 16:51:14;;;;;;;13.30;8.85;;;;;;;;;;6268640;28;20094;-79
2023/09/30 16:54:16;;;;;;;10.48;8.13;;;;;;;;;;6265241;28;20045;-78
2023/09/30 16:57:19;;;;;;;14.30;9.35;;;;;;;;;;6267737;28;20108;-80
2023/09/30 17:00:21;;;;;;;13.95;9.82;;;;;;;;;;6265164;28;20037;-78
2023/09/30 17:03:24;;;;;;;14.60;9.57;;;;;;;;;;6264950;28;20053;-79
2023/09/30 17:06:29;;;;;;;12.55;8.80;;;;;;;;;;6265414;28;20057;-78
2023/09/30 17:09:34;;;;;;;11.15;8.63;;;;;;;;;;6263221;28;20056;-78
2023/09/30 17:12:36;;;;;;;13.20;8.25;;;;;;;;;;6266223;28;20261;-78
2023/09/30 17:15:43;;;;;;;14.10;9.50;;;;;;;;;;6266265;28;20061;-77
2023/09/30 17:18:47;;;;;;;11.23;9.48;;;;;;;;;;6263465;28;20049;-78
2023/09/30 17:21:51;;;;;;;15.40;9.18;;;;;;;;;;6264015;28;20041;-78
2023/09/30 17:24:53;;;;;;;14.60;9.45;;;;;;;;;;6261616;28;20202;-78
2023/09/30 17:27:56;;;;;;;13.23;9.85;;;;;;;;;;6263673;28;20053;-78
2023/09/30 17:31:04;;;;;;;20.27;9.70;;;;;;;;;;6263707;28;20065;-78
2023/09/30 17:34:06;;;;;;;16.90;9.75;;;;;;;;;;6267909;28;20051;-81
2023/09/30 17:37:09;;;;;;;36.65;11.35;;;;;;;;;;6264874;28;20063;-79
2023/09/30 17:40:12;;;;;;;20.35;10.77;;;;;;;;;;6265438;28;20060;-77
2023/09/30 17:43:14;;;;;;;12.70;9.43;;;;;;;;;;6264912;28;20057;-77
2023/09/30 17:46:22;;;;;;;15.50;8.98;;;;;;;;;;6266001;28;20116;-76
2023/09/30 17:49:26;;;;;;;20.25;10.02;;;;;;;;;;6264877;28;20049;-76
2023/09/30 17:52:29;;;;;;;18.58;10.57;;;;;;;;;;6268109;28;20056;-77
2023/09/30 17:55:31;;;;;;;21.77;10.43;;;;;;;;;;6263053;28;20072;-77
2023/09/30 17:58:33;;;;;;;17.42;10.25;;;;;;;;;;6267046;28;20052;-76
2023/09/30 18:01:36;;;;;;;16.35;9.23;;;;;;;;;;6267271;28;20045;-77
2023/09/30 18:04:41;;;;;;;13.13;9.25;;;;;;;;;;6262549;28;20057;-75
2023/09/30 18:07:45;;;;;;;13.90;10.00;;;;;;;;;;6269356;28;20057;-76
2023/09/30 18:10:57;;;;;;;13.50;9.93;;;;;;;;;;6270575;28;20075;-76
2023/09/30 18:13:59;;;;;;;16.23;9.93;;;;;;;;;;6267423;28;20096;-76
2023/09/30 18:17:02;;;;;;;18.42;11.07;;;;;;;;;;6265012;28;20121;-76
2023/09/30 18:20:06;;;;;;;15.80;11.70;;;;;;;;;;6266513;28;20402;-76
2023/09/30 18:23:09;;;;;;;14.25;10.48;;;;;;;;;;6256484;28;20129;-77
2023/09/30 18:26:13;;;;;;;16.23;10.32;;;;;;;;;;6265168;28;20249;-76
2023/09/30 18:29:15;;;;;;;18.20;10.70;;;;;;;;;;6268581;28;20045;-77
2023/09/30 18:32:17;;;;;;;16.98;10.30;;;;;;;;;;6264199;28;20057;-76
2023/09/30 18:35:20;;;;;;;17.43;11.13;;;;;;;;;;6268861;28;20050;-77